createdAt,value
2023-04-21T00:01:44.590Z,36.41
2023-04-21T00:04:15.376Z,36.12
2023-04-21T00:06:44.569Z,36.50
2023-04-21T00:09:14.056Z,36.32
2023-04-21T00:11:42.109Z,36.27
2023-04-21T00:14:10.170Z,36.28
2023-04-21T00:16:38.414Z,36.38
2023-04-21T00:19:07.652Z,36.38
2023-04-21T00:21:36.740Z,36.37
2023-04-21T00:24:05.239Z,36.27
2023-04-21T00:26:34.704Z,36.26
2023-04-21T00:29:02.865Z,36.25
2023-04-21T00:31:31.167Z,36.30
2023-04-21T00:33:59.280Z,36.26
2023-04-21T00:36:28.312Z,36.39
2023-04-21T00:38:56.541Z,36.30
2023-04-21T00:41:24.902Z,36.35
2023-04-21T00:44:04.693Z,36.29
2023-04-21T00:46:33.340Z,36.41
2023-04-21T00:49:04.640Z,36.14
2023-04-21T00:51:34.464Z,36.31
2023-04-21T00:54:05.455Z,36.30
2023-04-21T00:56:35.007Z,36.27
2023-04-21T00:59:04.901Z,36.25
2023-04-21T01:01:36.646Z,36.42
2023-04-21T01:04:06.293Z,36.21
2023-04-21T01:06:35.310Z,36.37
2023-04-21T01:09:04.837Z,36.29
2023-04-21T01:11:33.096Z,36.23
2023-04-21T01:14:01.225Z,36.34
2023-04-21T01:16:32.798Z,36.30
2023-04-21T01:19:01.955Z,36.32
2023-04-21T01:21:32.166Z,36.33
2023-04-21T01:24:01.593Z,36.27
2023-04-21T01:26:29.712Z,36.35
2023-04-21T01:28:58.548Z,36.39
2023-04-21T01:31:27.455Z,36.33
2023-04-21T01:33:55.712Z,36.30
2023-04-21T01:36:24.023Z,36.23
2023-04-21T01:38:52.067Z,36.33
2023-04-21T01:41:21.550Z,36.20
2023-04-21T01:43:49.683Z,36.19
2023-04-21T01:46:20.793Z,36.21
2023-04-21T01:48:48.962Z,36.33
2023-04-21T01:51:17.033Z,36.19
2023-04-21T01:53:45.082Z,36.34
2023-04-21T01:56:15.499Z,36.24
2023-04-21T01:58:44.982Z,36.37
2023-04-21T02:01:13.101Z,36.36
2023-04-21T02:03:41.952Z,36.33
2023-04-21T02:06:10.138Z,36.20
2023-04-21T02:08:38.204Z,36.34
2023-04-21T02:11:06.334Z,36.26
2023-04-21T02:13:34.378Z,36.29
2023-04-21T02:16:13.354Z,36.32
2023-04-21T02:18:42.522Z,36.29
2023-04-21T02:21:10.641Z,36.13
2023-04-21T02:23:38.694Z,36.23
2023-04-21T02:26:07.005Z,36.17
2023-04-21T02:28:35.079Z,36.38
2023-04-21T02:31:04.901Z,36.27
2023-04-21T02:33:32.990Z,36.38
2023-04-21T02:36:01.070Z,36.33
2023-04-21T02:38:29.148Z,36.35
2023-04-21T02:40:57.778Z,36.18
2023-04-21T02:43:26.245Z,36.32
2023-04-21T02:45:54.342Z,36.31
2023-04-21T02:48:24.047Z,36.35
2023-04-21T02:50:53.351Z,36.20
2023-04-21T02:53:21.574Z,36.31
2023-04-21T02:55:50.005Z,36.32
2023-04-21T02:58:18.374Z,36.10
2023-04-21T03:00:46.531Z,36.24
2023-04-21T03:03:16.685Z,36.04
2023-04-21T03:05:46.351Z,36.32
2023-04-21T03:08:14.481Z,36.21
2023-04-21T03:10:42.762Z,36.16
2023-04-21T03:13:10.845Z,36.36
2023-04-21T03:15:38.915Z,36.26
2023-04-21T03:18:07.134Z,36.18
2023-04-21T03:20:35.329Z,36.24
2023-04-21T03:23:05.007Z,36.25
2023-04-21T03:25:33.115Z,36.31
2023-04-21T03:28:01.211Z,36.32
2023-04-21T03:30:29.435Z,36.22
2023-04-21T03:32:58.899Z,36.24
2023-04-21T03:35:27.188Z,36.20
2023-04-21T03:37:55.394Z,36.25
2023-04-21T03:40:24.931Z,36.30
2023-04-21T03:42:53.492Z,36.20
2023-04-21T03:45:22.771Z,36.10
2023-04-21T03:47:54.218Z,36.23
2023-04-21T03:50:22.563Z,36.17
2023-04-21T03:52:50.672Z,36.23
2023-04-21T03:55:18.792Z,36.19
2023-04-21T03:57:48.253Z,36.24
2023-04-21T04:00:16.518Z,36.15
2023-04-21T04:02:44.921Z,35.96
2023-04-21T04:05:13.245Z,36.17
2023-04-21T04:07:41.466Z,36.17
2023-04-21T04:10:09.659Z,36.22
2023-04-21T04:12:37.748Z,36.18
2023-04-21T04:15:08.698Z,36.19
2023-04-21T04:17:36.759Z,36.15
2023-04-21T04:20:06.546Z,36.19
2023-04-21T04:22:34.894Z,36.10
2023-04-21T04:25:03.020Z,36.24
2023-04-21T04:27:31.091Z,36.17
2023-04-21T04:29:59.348Z,36.10
2023-04-21T04:32:28.927Z,36.15
2023-04-21T04:34:57.500Z,36.17
2023-04-21T04:37:25.599Z,36.23
2023-04-21T04:39:54.984Z,36.14
2023-04-21T04:42:23.051Z,36.09
2023-04-21T04:44:54.732Z,36.14
2023-04-21T04:47:22.874Z,36.18
2023-04-21T04:49:52.521Z,36.10
2023-04-21T04:52:20.774Z,36.18
2023-04-21T04:54:48.877Z,36.25
2023-04-21T04:57:16.970Z,36.26
2023-04-21T04:59:45.162Z,36.19
2023-04-21T05:02:13.531Z,36.20
2023-04-21T05:04:41.969Z,36.15
2023-04-21T05:07:11.646Z,36.24
2023-04-21T05:09:39.804Z,36.16
2023-04-21T05:12:08.067Z,36.11
2023-04-21T05:14:36.271Z,36.32
2023-04-21T05:17:04.400Z,36.22
2023-04-21T05:19:32.539Z,36.20
2023-04-21T05:22:02.046Z,36.16
2023-04-21T05:24:31.564Z,36.25
2023-04-21T05:26:59.673Z,36.26
2023-04-21T05:29:27.792Z,36.28
2023-04-21T05:31:57.307Z,36.21
2023-04-21T05:34:25.515Z,36.01
2023-04-21T05:36:53.637Z,36.27
2023-04-21T05:39:21.733Z,36.17
2023-04-21T05:41:51.231Z,36.25
2023-04-21T05:44:19.567Z,36.19
2023-04-21T05:46:47.954Z,36.27
2023-04-21T05:49:16.656Z,36.12
2023-04-21T05:51:44.848Z,36.20
2023-04-21T05:54:12.974Z,36.18
2023-04-21T05:56:41.097Z,36.22
2023-04-21T05:59:11.681Z,36.22
2023-04-21T06:01:39.828Z,36.11
2023-04-21T06:04:08.118Z,36.14
2023-04-21T06:06:36.807Z,36.28
2023-04-21T06:09:05.604Z,36.26
2023-04-21T06:11:33.686Z,36.29
2023-04-21T06:14:02.038Z,36.18
2023-04-21T06:16:34.221Z,36.19
2023-04-21T06:19:02.525Z,36.26
2023-04-21T06:21:30.989Z,36.20
2023-04-21T06:23:59.548Z,36.26
2023-04-21T06:26:27.714Z,36.24
2023-04-21T06:28:56.037Z,36.31
2023-04-21T06:31:24.264Z,36.22
2023-04-21T06:33:53.842Z,36.18
2023-04-21T06:36:23.089Z,36.21
2023-04-21T06:38:51.214Z,36.22
2023-04-21T06:41:19.604Z,36.07
2023-04-21T06:43:47.722Z,36.31
2023-04-21T06:46:15.873Z,36.39
2023-04-21T06:48:43.979Z,36.24
2023-04-21T06:51:13.714Z,36.30
2023-04-21T06:53:41.847Z,36.15
2023-04-21T06:56:09.964Z,36.26
2023-04-21T06:58:38.126Z,36.32
2023-04-21T07:01:06.504Z,36.27
2023-04-21T07:03:34.901Z,36.18
2023-04-21T07:06:03.126Z,36.14
2023-04-21T07:08:32.770Z,36.25
2023-04-21T07:11:00.893Z,36.21
2023-04-21T07:13:29.073Z,36.35
2023-04-21T07:15:57.624Z,36.28
2023-04-21T07:18:25.864Z,36.34
2023-04-21T07:20:54.417Z,36.18
2023-04-21T07:23:22.564Z,36.09
2023-04-21T07:25:52.134Z,36.38
2023-04-21T07:28:20.355Z,36.28
2023-04-21T07:30:48.650Z,36.22
2023-04-21T07:33:16.807Z,36.25
2023-04-21T07:35:45.000Z,36.28
2023-04-21T07:38:13.290Z,36.24
2023-04-21T07:40:41.419Z,36.31
2023-04-21T07:43:11.180Z,36.43
2023-04-21T07:45:39.361Z,36.37
2023-04-21T07:48:07.785Z,36.40
2023-04-21T07:50:37.123Z,36.36
2023-04-21T07:53:05.518Z,36.25
2023-04-21T07:55:34.386Z,36.31
2023-04-21T07:58:02.548Z,36.27
2023-04-21T08:00:32.279Z,36.33
2023-04-21T08:03:00.542Z,36.32
2023-04-21T08:05:32.322Z,36.35
2023-04-21T08:08:03.226Z,36.38
2023-04-21T08:10:31.494Z,36.27
2023-04-21T08:12:59.595Z,36.35
2023-04-21T08:15:27.804Z,36.38
2023-04-21T08:17:57.404Z,36.33
2023-04-21T08:20:25.653Z,36.33
2023-04-21T08:22:53.879Z,36.28
2023-04-21T08:25:22.632Z,36.16
2023-04-21T08:27:50.944Z,36.16
2023-04-21T08:30:19.229Z,36.15
2023-04-21T08:32:47.419Z,36.21
2023-04-21T08:35:17.015Z,36.32
2023-04-21T08:37:45.670Z,36.16
2023-04-21T08:40:14.108Z,36.10
2023-04-21T08:42:42.310Z,36.20
2023-04-21T08:45:11.560Z,36.05
2023-04-21T08:47:42.599Z,36.09
2023-04-21T08:50:14.997Z,36.18
2023-04-21T08:52:44.913Z,36.21
2023-04-21T08:55:14.219Z,36.31
2023-04-21T08:57:42.389Z,36.32
2023-04-21T09:00:11.554Z,36.30
2023-04-21T09:03:00.748Z,36.29
2023-04-21T09:05:31.440Z,36.26
2023-04-21T09:08:11.237Z,36.32
2023-04-21T09:10:46.543Z,36.34
2023-04-21T09:13:15.089Z,36.33
2023-04-21T09:15:44.336Z,36.37
2023-04-21T09:18:14.873Z,36.27
2023-04-21T09:20:44.127Z,36.32
2023-04-21T09:23:14.472Z,36.35
2023-04-21T09:25:44.190Z,36.17
2023-04-21T09:28:13.543Z,36.40
2023-04-21T09:30:43.161Z,36.46
2023-04-21T09:33:28.043Z,36.39
2023-04-21T09:36:03.319Z,36.48
2023-04-21T09:38:34.214Z,36.34
2023-04-21T09:41:02.434Z,36.45
2023-04-21T09:43:30.614Z,36.40
2023-04-21T09:45:59.920Z,36.40
2023-04-21T09:48:33.123Z,36.41
2023-04-21T09:51:25.520Z,36.52
2023-04-21T09:53:54.661Z,36.54
2023-04-21T09:56:25.769Z,36.56
2023-04-21T09:58:55.321Z,36.58
2023-04-21T10:01:26.284Z,36.52
2023-04-21T10:03:55.083Z,36.61
2023-04-21T10:06:24.328Z,36.52
2023-04-21T10:08:56.927Z,36.51
2023-04-21T10:11:26.169Z,36.54
2023-04-21T10:13:54.638Z,36.54
2023-04-21T10:16:23.423Z,36.54
2023-04-21T10:18:51.640Z,36.62
2023-04-21T10:21:22.189Z,36.59
2023-04-21T10:23:53.097Z,36.64
2023-04-21T10:26:24.618Z,36.69
2023-04-21T10:28:59.433Z,36.56
2023-04-21T10:31:34.764Z,36.65
2023-04-21T10:34:20.325Z,36.70
2023-04-21T10:37:07.896Z,36.48
2023-04-21T10:39:37.442Z,36.67
2023-04-21T10:42:25.629Z,36.88
2023-04-21T10:44:55.696Z,36.58
2023-04-21T10:47:27.991Z,36.55
2023-04-21T10:49:58.246Z,36.65
2023-04-21T10:52:34.578Z,36.75
2023-04-21T10:55:12.838Z,36.73
2023-04-21T10:57:46.364Z,36.61
2023-04-21T11:00:17.939Z,36.70
2023-04-21T11:02:54.358Z,36.68
2023-04-21T11:05:29.172Z,36.70
2023-04-21T11:08:05.049Z,36.69
2023-04-21T11:10:43.734Z,36.77
2023-04-21T11:13:13.339Z,36.87
2023-04-21T11:15:42.263Z,36.79
2023-04-21T11:18:10.488Z,36.81
2023-04-21T11:20:46.233Z,36.70
2023-04-21T11:23:19.085Z,36.80
2023-04-21T11:25:49.501Z,36.70
2023-04-21T11:28:23.739Z,37.04
2023-04-21T11:30:51.957Z,36.88
2023-04-21T11:33:20.404Z,36.81
2023-04-21T11:35:49.797Z,36.67
2023-04-21T11:38:19.028Z,36.89
2023-04-21T11:40:48.706Z,36.83
2023-04-21T11:43:17.259Z,36.71
2023-04-21T11:45:50.647Z,36.72
2023-04-21T11:48:19.655Z,36.72
2023-04-21T11:50:51.775Z,36.90
2023-04-21T11:53:21.045Z,36.87
2023-04-21T11:55:49.462Z,36.78
2023-04-21T11:58:18.071Z,36.70
2023-04-21T12:00:48.108Z,36.82
2023-04-21T12:03:17.147Z,36.75
2023-04-21T12:05:45.455Z,36.80
2023-04-21T12:08:17.149Z,36.85
2023-04-21T12:10:50.119Z,37.03
2023-04-21T12:13:24.513Z,36.92
2023-04-21T12:15:54.163Z,36.60
2023-04-21T12:18:22.336Z,36.78
2023-04-21T12:20:51.817Z,36.91
2023-04-21T12:23:20.491Z,36.76
2023-04-21T12:25:48.906Z,36.90
2023-04-21T12:28:18.318Z,36.82
2023-04-21T12:30:46.530Z,36.89
2023-04-21T12:33:16.199Z,36.98
2023-04-21T12:35:44.644Z,36.89
2023-04-21T12:38:12.814Z,36.94
2023-04-21T12:40:40.999Z,37.04
2023-04-21T12:43:09.126Z,37.06
2023-04-21T12:45:37.609Z,36.81
2023-04-21T12:48:06.060Z,37.10
2023-04-21T12:50:35.649Z,36.99
2023-04-21T12:53:03.848Z,36.88
2023-04-21T12:55:32.016Z,36.98
2023-04-21T12:58:00.164Z,37.01
2023-04-21T13:00:28.597Z,36.94
2023-04-21T13:02:56.850Z,36.97
2023-04-21T13:05:25.193Z,37.03
2023-04-21T13:07:55.642Z,37.10
2023-04-21T13:10:25.287Z,36.91
2023-04-21T13:12:53.459Z,37.02
2023-04-21T13:15:21.675Z,37.06
2023-04-21T13:17:50.665Z,37.16
2023-04-21T13:20:20.513Z,37.06
2023-04-21T13:22:48.700Z,37.00
2023-04-21T13:25:18.817Z,37.17
2023-04-21T13:27:47.014Z,37.18
2023-04-21T13:30:16.733Z,37.02
2023-04-21T13:32:45.095Z,37.08
2023-04-21T13:35:13.362Z,37.08
2023-04-21T13:37:42.574Z,37.09
2023-04-21T13:40:12.210Z,37.26
2023-04-21T13:42:41.843Z,37.05
2023-04-21T13:45:11.212Z,37.06
2023-04-21T13:47:39.768Z,37.05
2023-04-21T13:50:09.196Z,37.09
2023-04-21T13:52:37.435Z,37.14
2023-04-21T13:55:06.314Z,37.04
2023-04-21T13:57:34.536Z,37.16
2023-04-21T14:00:06.210Z,37.12
2023-04-21T14:02:34.719Z,37.17
2023-04-21T14:05:03.927Z,37.17
2023-04-21T14:07:32.343Z,37.12
2023-04-21T14:10:00.543Z,37.15
2023-04-21T14:12:28.944Z,37.25
2023-04-21T14:14:57.183Z,37.10
2023-04-21T14:17:26.966Z,37.22
2023-04-21T14:19:55.416Z,37.14
2023-04-21T14:22:23.718Z,37.16
2023-04-21T14:24:51.986Z,37.15
2023-04-21T14:27:20.134Z,37.21
2023-04-21T14:29:48.359Z,37.28
2023-04-21T14:32:16.962Z,37.12
2023-04-21T14:34:46.545Z,37.21
2023-04-21T14:37:14.759Z,37.14
2023-04-21T14:39:42.930Z,37.13
2023-04-21T14:42:11.213Z,37.18
2023-04-21T14:44:39.395Z,37.24
2023-04-21T14:47:10.430Z,37.26
2023-04-21T14:49:39.613Z,37.07
2023-04-21T14:52:09.441Z,37.15
2023-04-21T14:54:37.726Z,37.11
2023-04-21T14:57:19.009Z,37.14
2023-04-21T14:59:47.663Z,37.17
2023-04-21T15:02:16.647Z,37.06
2023-04-21T15:04:45.135Z,37.07
2023-04-21T15:07:17.158Z,37.29
2023-04-21T15:09:48.683Z,37.11
2023-04-21T15:12:16.952Z,37.13
2023-04-21T15:14:45.521Z,37.13
2023-04-21T15:17:14.061Z,37.11
2023-04-21T15:19:42.235Z,37.12
2023-04-21T15:22:12.258Z,37.21
2023-04-21T15:24:41.947Z,37.21
2023-04-21T15:27:10.342Z,37.25
2023-04-21T15:29:38.574Z,37.13
2023-04-21T15:32:06.884Z,37.14
2023-04-21T15:34:35.057Z,37.08
2023-04-21T15:37:03.318Z,37.01
2023-04-21T15:39:31.497Z,37.05
2023-04-21T15:42:01.740Z,37.05
2023-04-21T15:44:29.855Z,36.98
2023-04-21T15:46:58.193Z,37.04
2023-04-21T15:49:26.465Z,36.91
2023-04-21T15:51:54.800Z,37.03
2023-04-21T15:54:23.044Z,37.10
2023-04-21T15:56:51.504Z,37.16
2023-04-21T15:59:22.391Z,37.02
2023-04-21T16:01:51.942Z,36.97
2023-04-21T16:04:20.277Z,37.00
2023-04-21T16:06:48.669Z,36.94
2023-04-21T16:09:17.671Z,37.01
2023-04-21T16:11:46.312Z,36.98
2023-04-21T16:14:16.582Z,36.88
2023-04-21T16:16:46.500Z,37.01
2023-04-21T16:19:14.696Z,36.90
2023-04-21T16:21:43.528Z,36.97
2023-04-21T16:24:12.285Z,36.95
2023-04-21T16:26:41.074Z,37.01
2023-04-21T16:29:09.188Z,36.98
2023-04-21T16:31:37.481Z,36.97
2023-04-21T16:34:07.013Z,36.78
2023-04-21T16:36:35.195Z,36.90
2023-04-21T16:39:03.487Z,36.87
2023-04-21T16:41:31.715Z,36.82
2023-04-21T16:43:59.831Z,36.87
2023-04-21T16:46:28.142Z,36.80
2023-04-21T16:48:56.394Z,36.87
2023-04-21T16:51:27.011Z,36.86
2023-04-21T16:53:56.792Z,36.96
2023-04-21T16:56:25.013Z,36.88
2023-04-21T16:58:54.049Z,36.85
2023-04-21T17:01:22.217Z,36.90
2023-04-21T17:03:50.509Z,36.86
2023-04-21T17:06:21.365Z,36.86
2023-04-21T17:08:52.344Z,36.91
2023-04-21T17:11:20.451Z,36.97
2023-04-21T17:13:48.541Z,36.87
2023-04-21T17:16:17.065Z,36.99
2023-04-21T17:18:45.362Z,36.88
2023-04-21T17:21:13.465Z,36.92
2023-04-21T17:23:41.567Z,36.95
2023-04-21T17:26:13.195Z,36.98
2023-04-21T17:28:41.645Z,36.94
2023-04-21T17:31:15.870Z,36.95
2023-04-21T17:33:44.818Z,36.87
2023-04-21T17:36:13.366Z,37.01
2023-04-21T17:38:42.926Z,36.92
2023-04-21T17:41:12.593Z,36.88
2023-04-21T17:43:41.095Z,37.07
2023-04-21T17:46:09.300Z,36.95
2023-04-21T17:48:37.651Z,37.09
2023-04-21T17:51:05.935Z,37.00
2023-04-21T17:53:34.026Z,37.04
2023-04-21T17:56:02.270Z,37.10
2023-04-21T17:58:31.862Z,37.05
2023-04-21T18:01:00.531Z,37.09
2023-04-21T18:03:28.904Z,37.14
2023-04-21T18:05:57.303Z,37.08
2023-04-21T18:08:26.496Z,37.08
2023-04-21T18:10:55.802Z,37.07
2023-04-21T18:13:23.885Z,37.08
2023-04-21T18:15:53.489Z,37.17
2023-04-21T18:18:21.595Z,37.09
2023-04-21T18:20:49.703Z,37.15
2023-04-21T18:23:17.831Z,37.15
2023-04-21T18:25:45.977Z,37.10
2023-04-21T18:28:14.438Z,37.13
2023-04-21T18:30:42.694Z,37.14
2023-04-21T18:33:12.589Z,37.19
2023-04-21T18:35:41.857Z,37.19
2023-04-21T18:38:11.680Z,37.22
2023-04-21T18:40:40.932Z,37.22
2023-04-21T18:43:10.686Z,37.24
2023-04-21T18:45:39.184Z,37.30
2023-04-21T18:48:07.437Z,37.32
2023-04-21T18:50:40.389Z,37.22
2023-04-21T18:53:09.464Z,37.33
2023-04-21T18:55:37.896Z,37.34
2023-04-21T18:58:06.190Z,37.31
2023-04-21T19:00:37.574Z,37.35
2023-04-21T19:03:06.989Z,37.27
2023-04-21T19:05:37.120Z,37.37
2023-04-21T19:08:05.704Z,37.44
2023-04-21T19:10:35.788Z,37.31
2023-04-21T19:13:04.354Z,37.31
2023-04-21T19:15:32.525Z,37.33
2023-04-21T19:18:00.653Z,37.40
2023-04-21T19:20:29.258Z,37.29
2023-04-21T19:22:58.702Z,37.40
2023-04-21T19:25:26.757Z,37.37
2023-04-21T19:27:54.945Z,37.32
2023-04-21T19:30:23.050Z,37.30
2023-04-21T19:32:51.360Z,37.42
2023-04-21T19:35:19.432Z,37.38
2023-04-21T19:37:47.521Z,37.34
2023-04-21T19:40:17.288Z,37.32
2023-04-21T19:42:46.065Z,37.37
2023-04-21T19:45:14.254Z,37.33
2023-04-21T19:47:42.338Z,37.24
2023-04-21T19:50:13.004Z,37.29
2023-04-21T19:52:41.102Z,37.50
2023-04-21T19:55:10.006Z,37.51
2023-04-21T19:57:39.628Z,37.46
2023-04-21T20:00:11.667Z,37.43
2023-04-21T20:02:39.906Z,37.37
2023-04-21T20:05:09.540Z,37.47
2023-04-21T20:07:37.817Z,37.42
2023-04-21T20:10:06.999Z,37.42
2023-04-21T20:12:35.416Z,37.40
2023-04-21T20:15:06.137Z,37.48
2023-04-21T20:17:34.290Z,37.37
2023-04-21T20:20:03.410Z,37.29
2023-04-21T20:22:31.644Z,37.32
2023-04-21T20:24:59.700Z,37.32
2023-04-21T20:27:28.444Z,37.42
2023-04-21T20:29:56.617Z,37.37
2023-04-21T20:32:26.249Z,37.30
2023-04-21T20:34:54.340Z,37.43
2023-04-21T20:37:23.442Z,37.50
2023-04-21T20:39:51.676Z,37.53
2023-04-21T20:42:21.934Z,37.33
2023-04-21T20:44:50.213Z,37.48
2023-04-21T20:47:18.353Z,37.42
2023-04-21T20:49:48.181Z,37.41
2023-04-21T20:52:16.453Z,37.31
2023-04-21T20:54:44.618Z,37.31
2023-04-21T20:57:13.214Z,37.39
2023-04-21T20:59:41.442Z,37.27
2023-04-21T21:02:09.935Z,37.45
2023-04-21T21:04:38.276Z,37.44
2023-04-21T21:07:07.819Z,37.40
2023-04-21T21:09:36.471Z,37.37
2023-04-21T21:12:04.915Z,37.31
2023-04-21T21:14:33.003Z,37.44
2023-04-21T21:17:01.505Z,37.21
2023-04-21T21:19:29.772Z,37.37
2023-04-21T21:21:57.938Z,37.31
2023-04-21T21:24:28.975Z,37.30
2023-04-21T21:26:57.428Z,37.26
2023-04-21T21:29:25.608Z,37.33
2023-04-21T21:31:53.735Z,37.25
2023-04-21T21:34:21.931Z,37.25
2023-04-21T21:36:49.998Z,37.37
2023-04-21T21:39:18.097Z,37.47
2023-04-21T21:41:47.493Z,37.28
2023-04-21T21:44:15.602Z,37.35
2023-04-21T21:46:44.284Z,37.41
2023-04-21T21:49:12.447Z,37.28
2023-04-21T21:51:40.855Z,37.26
2023-04-21T21:54:09.047Z,37.37
2023-04-21T21:56:37.668Z,37.36
2023-04-21T21:59:07.181Z,37.40
2023-04-21T22:01:35.292Z,37.39
2023-04-21T22:04:03.676Z,37.35
2023-04-21T22:06:34.247Z,37.33
2023-04-21T22:09:02.358Z,37.45
2023-04-21T22:11:30.526Z,37.34
2023-04-21T22:14:07.763Z,37.33
2023-04-21T22:16:46.219Z,37.43
2023-04-21T22:19:14.749Z,37.39
2023-04-21T22:21:42.808Z,37.38
2023-04-21T22:24:10.869Z,37.29
2023-04-21T22:26:38.905Z,37.37
2023-04-21T22:29:07.144Z,37.46
2023-04-21T22:31:35.699Z,37.28
2023-04-21T22:34:05.445Z,37.37
2023-04-21T22:36:33.566Z,37.43
2023-04-21T22:39:01.619Z,37.41
2023-04-21T22:41:29.719Z,37.33
2023-04-21T22:43:57.817Z,37.53
2023-04-21T22:46:26.016Z,37.44
2023-04-21T22:48:54.524Z,37.36
2023-04-21T22:51:24.485Z,37.34
2023-04-21T22:53:52.596Z,37.46
2023-04-21T22:56:21.223Z,37.35
2023-04-21T22:58:50.134Z,37.37
2023-04-21T23:01:18.268Z,37.51
2023-04-21T23:03:46.579Z,37.47
2023-04-21T23:06:14.760Z,37.38
2023-04-21T23:08:44.205Z,37.42
2023-04-21T23:11:12.345Z,37.35
2023-04-21T23:13:40.725Z,37.54
2023-04-21T23:16:08.835Z,37.38
2023-04-21T23:18:37.074Z,37.43
2023-04-21T23:21:05.462Z,37.33
2023-04-21T23:23:33.516Z,37.43
2023-04-21T23:26:03.174Z,37.38
2023-04-21T23:28:31.907Z,37.47
2023-04-21T23:31:00.022Z,37.47
2023-04-21T23:33:28.189Z,37.43
2023-04-21T23:35:56.316Z,37.41
2023-04-21T23:38:24.402Z,37.56
2023-04-21T23:40:52.455Z,37.48
2023-04-21T23:43:21.924Z,37.40
2023-04-21T23:45:50.260Z,37.43
2023-04-21T23:48:18.470Z,37.36
2023-04-21T23:50:46.684Z,37.51
2023-04-21T23:53:14.843Z,37.46
2023-04-21T23:55:43.248Z,37.38
2023-04-21T23:58:11.333Z,37.50
